createdAt,value
2022-12-29T04:02:10.047Z,1.52
2022-12-29T04:04:39.881Z,1.60
2022-12-29T04:07:08.875Z,1.40
2022-12-29T04:09:36.849Z,1.60
2022-12-29T04:12:05.464Z,1.50
2022-12-29T04:14:35.789Z,1.40
2022-12-29T04:17:03.729Z,1.58
2022-12-29T04:19:33.597Z,1.60
2022-12-29T04:22:01.789Z,1.40
2022-12-29T04:24:30.830Z,1.60
2022-12-29T04:26:58.856Z,1.50
2022-12-29T04:29:45.126Z,1.55
2022-12-29T04:32:39.124Z,1.40
2022-12-29T04:35:10.129Z,1.40
2022-12-29T04:37:38.011Z,1.48
2022-12-29T04:40:06.893Z,1.55
2022-12-29T04:42:35.359Z,1.40
2022-12-29T04:45:04.386Z,1.63
2022-12-29T04:47:54.466Z,1.80
2022-12-29T04:50:50.548Z,1.42
2022-12-29T04:53:20.725Z,1.40
2022-12-29T04:55:51.266Z,1.50
2022-12-29T04:58:22.806Z,1.40
2022-12-29T05:00:51.847Z,1.55
2022-12-29T05:03:21.900Z,1.50
2022-12-29T05:05:54.898Z,1.50
2022-12-29T05:08:28.299Z,1.33
2022-12-29T05:10:58.836Z,1.40
2022-12-29T05:13:27.643Z,1.60
2022-12-29T05:15:56.055Z,1.40
2022-12-29T05:18:25.599Z,1.75
2022-12-29T05:20:54.850Z,1.88
2022-12-29T05:23:24.830Z,2.10
2022-12-29T05:26:00.398Z,1.65
2022-12-29T05:28:46.793Z,2.05
2022-12-29T05:31:19.579Z,2.00
2022-12-29T05:33:48.053Z,2.40
2022-12-29T05:36:17.428Z,1.70
2022-12-29T05:38:50.771Z,1.67
2022-12-29T05:41:19.973Z,1.90
2022-12-29T05:43:47.870Z,1.30
2022-12-29T05:46:35.413Z,1.50
2022-12-29T05:49:17.481Z,1.65
2022-12-29T05:51:57.815Z,1.45
2022-12-29T05:54:25.786Z,1.40
2022-12-29T05:56:54.879Z,1.35
2022-12-29T05:59:22.793Z,1.42
2022-12-29T06:01:51.675Z,1.48
2022-12-29T06:04:19.807Z,1.50
2022-12-29T06:06:49.591Z,1.50
2022-12-29T06:09:37.534Z,1.50
2022-12-29T06:12:07.531Z,1.25
2022-12-29T06:14:35.615Z,1.42
2022-12-29T06:17:06.174Z,1.33
2022-12-29T06:19:35.981Z,1.52
2022-12-29T06:22:03.891Z,1.20
2022-12-29T06:24:35.108Z,1.30
2022-12-29T06:27:05.264Z,1.38
2022-12-29T06:29:33.397Z,1.30
2022-12-29T06:32:01.282Z,1.40
2022-12-29T06:34:31.598Z,1.38
2022-12-29T06:36:59.650Z,1.50
2022-12-29T06:39:29.857Z,1.40
2022-12-29T06:42:06.970Z,1.30
2022-12-29T06:45:11.069Z,1.45
2022-12-29T06:47:40.026Z,1.35
2022-12-29T06:50:08.464Z,1.30
2022-12-29T06:52:36.699Z,1.33
2022-12-29T06:55:04.893Z,1.40
2022-12-29T06:57:34.160Z,1.25
2022-12-29T07:00:02.106Z,1.80
2022-12-29T07:02:30.094Z,1.80
2022-12-29T07:04:58.110Z,1.75
2022-12-29T07:07:26.041Z,1.50
2022-12-29T07:09:53.868Z,1.60
2022-12-29T07:12:21.712Z,1.30
2022-12-29T07:14:51.008Z,1.58
2022-12-29T07:17:18.825Z,1.73
2022-12-29T07:19:49.650Z,1.90
2022-12-29T07:22:17.460Z,1.80
2022-12-29T07:24:45.305Z,1.73
2022-12-29T07:27:13.194Z,1.50
2022-12-29T07:29:41.027Z,1.85
2022-12-29T07:32:10.248Z,1.88
2022-12-29T07:34:38.201Z,1.58
2022-12-29T07:37:07.076Z,1.85
2022-12-29T07:39:35.086Z,2.05
2022-12-29T07:42:05.266Z,1.70
2022-12-29T07:44:40.506Z,1.58
2022-12-29T07:47:19.167Z,1.80
2022-12-29T07:49:47.144Z,2.00
2022-12-29T07:52:15.150Z,1.95
2022-12-29T07:54:43.030Z,2.25
2022-12-29T07:57:10.918Z,1.90
2022-12-29T07:59:38.776Z,1.90
2022-12-29T08:02:06.698Z,1.85
2022-12-29T08:04:36.047Z,1.95
2022-12-29T08:07:03.879Z,1.90
2022-12-29T08:09:31.802Z,1.83
2022-12-29T08:11:59.780Z,1.90
2022-12-29T08:14:27.615Z,2.10
2022-12-29T08:16:55.480Z,2.40
2022-12-29T08:19:23.317Z,2.10
2022-12-29T08:21:54.288Z,2.20
2022-12-29T08:24:22.519Z,1.92
2022-12-29T08:26:50.423Z,2.45
2022-12-29T08:29:18.393Z,2.58
2022-12-29T08:31:46.227Z,2.53
2022-12-29T08:34:14.051Z,2.50
2022-12-29T08:36:42.010Z,2.90
2022-12-29T08:39:12.259Z,2.47
2022-12-29T08:41:40.476Z,2.53
2022-12-29T08:44:08.356Z,2.65
2022-12-29T08:46:36.230Z,2.88
2022-12-29T08:49:04.141Z,3.10
2022-12-29T08:51:32.085Z,2.50
2022-12-29T08:54:00.629Z,2.55
2022-12-29T08:56:30.272Z,2.60
2022-12-29T08:59:00.714Z,3.10
2022-12-29T09:01:31.961Z,2.60
2022-12-29T09:04:17.320Z,3.10
2022-12-29T09:06:46.869Z,3.00
2022-12-29T09:09:15.078Z,2.78
2022-12-29T09:11:45.379Z,2.80
2022-12-29T09:14:13.635Z,2.97
2022-12-29T09:16:55.496Z,2.85
2022-12-29T09:19:23.325Z,2.72
2022-12-29T09:21:51.381Z,3.20
2022-12-29T09:24:19.228Z,2.55
2022-12-29T09:26:48.436Z,2.50
2022-12-29T09:29:16.808Z,2.60
2022-12-29T09:31:44.767Z,2.40
2022-12-29T09:34:12.767Z,2.92
2022-12-29T09:36:40.616Z,2.20
2022-12-29T09:39:08.473Z,2.22
2022-12-29T09:41:42.181Z,2.30
2022-12-29T09:44:22.597Z,2.05
2022-12-29T09:46:53.089Z,1.80
2022-12-29T09:49:27.886Z,2.00
2022-12-29T09:51:58.371Z,2.00
2022-12-29T09:54:42.264Z,1.83
2022-12-29T09:57:21.812Z,2.08
2022-12-29T09:59:56.064Z,1.67
2022-12-29T10:02:34.456Z,1.55
2022-12-29T10:05:02.663Z,1.50
2022-12-29T10:07:40.346Z,1.50
2022-12-29T10:10:34.107Z,1.42
2022-12-29T10:13:23.959Z,1.30
2022-12-29T10:16:03.699Z,1.20
2022-12-29T10:18:46.986Z,1.25
2022-12-29T10:21:24.371Z,1.10
2022-12-29T10:23:53.980Z,1.25
2022-12-29T10:26:28.217Z,1.05
2022-12-29T10:28:58.875Z,0.80
2022-12-29T10:31:35.905Z,0.70
2022-12-29T10:34:09.916Z,0.80
2022-12-29T10:36:41.801Z,0.75
2022-12-29T10:39:22.728Z,0.88
2022-12-29T10:41:55.124Z,0.60
2022-12-29T10:44:25.932Z,0.80
2022-12-29T10:46:59.074Z,0.73
2022-12-29T10:49:29.048Z,0.55
2022-12-29T10:52:00.026Z,0.70
2022-12-29T10:54:33.429Z,0.60
2022-12-29T10:57:07.001Z,0.73
2022-12-29T10:59:37.332Z,0.73
2022-12-29T11:02:25.991Z,1.08
2022-12-29T11:05:03.029Z,0.60
2022-12-29T11:07:32.134Z,0.60
2022-12-29T11:10:20.113Z,0.63
2022-12-29T11:12:58.064Z,0.80
2022-12-29T11:15:26.284Z,0.60
2022-12-29T11:18:00.311Z,0.90
2022-12-29T11:20:32.444Z,1.00
2022-12-29T11:23:01.180Z,0.60
2022-12-29T11:25:29.488Z,0.80
2022-12-29T11:28:01.992Z,0.90
2022-12-29T11:30:31.813Z,1.02
2022-12-29T11:33:05.252Z,0.90
2022-12-29T11:35:36.724Z,0.70
2022-12-29T11:38:19.017Z,0.80
2022-12-29T11:40:46.901Z,0.80
2022-12-29T11:43:24.743Z,0.80
2022-12-29T11:45:57.394Z,0.80
2022-12-29T11:48:30.966Z,0.93
2022-12-29T11:51:01.205Z,0.80
2022-12-29T11:53:33.459Z,0.90
2022-12-29T11:56:04.384Z,0.90
2022-12-29T11:58:33.528Z,1.00
2022-12-29T12:01:05.960Z,0.82
2022-12-29T12:03:39.735Z,0.85
2022-12-29T12:06:13.661Z,0.80
2022-12-29T12:08:46.025Z,0.80
2022-12-29T12:11:16.659Z,0.70
2022-12-29T12:14:00.000Z,0.90
2022-12-29T12:16:39.340Z,1.23
2022-12-29T12:19:21.940Z,0.75
2022-12-29T12:21:57.158Z,0.80
2022-12-29T12:24:41.477Z,0.90
2022-12-29T12:27:17.183Z,0.63
2022-12-29T12:29:52.491Z,0.80
2022-12-29T12:32:26.958Z,0.73
2022-12-29T12:34:56.183Z,0.70
2022-12-29T12:37:37.469Z,0.90
2022-12-29T12:40:27.604Z,0.80
2022-12-29T12:43:07.777Z,0.70
2022-12-29T12:45:45.960Z,0.90
2022-12-29T12:48:29.172Z,0.70
2022-12-29T12:51:07.283Z,0.73
2022-12-29T12:53:50.085Z,0.70
2022-12-29T12:56:32.895Z,0.95
2022-12-29T12:59:10.117Z,0.80
2022-12-29T13:01:49.112Z,0.45
2022-12-29T13:04:50.469Z,0.90
2022-12-29T13:07:30.192Z,0.93
2022-12-29T13:10:21.502Z,0.90
2022-12-29T13:12:56.145Z,0.68
2022-12-29T13:15:39.878Z,1.00
2022-12-29T13:18:20.065Z,1.10
2022-12-29T13:20:53.733Z,0.90
2022-12-29T13:23:30.093Z,0.80
2022-12-29T13:26:07.537Z,0.80
2022-12-29T13:28:46.715Z,1.20
2022-12-29T13:31:19.877Z,0.90
2022-12-29T13:33:56.070Z,0.80
2022-12-29T13:36:28.920Z,0.90
2022-12-29T13:39:04.608Z,0.90
2022-12-29T13:41:36.479Z,0.80
2022-12-29T13:44:05.835Z,1.00
2022-12-29T13:46:39.367Z,1.00
2022-12-29T13:49:12.427Z,1.38
2022-12-29T13:51:45.238Z,1.17
2022-12-29T13:54:27.274Z,1.17
2022-12-29T13:57:04.270Z,1.20
2022-12-29T13:59:42.683Z,1.40
2022-12-29T14:02:21.901Z,1.30
2022-12-29T14:05:02.966Z,1.60
2022-12-29T14:07:37.524Z,1.70
2022-12-29T14:10:08.007Z,2.22
2022-12-29T14:12:40.164Z,2.20
2022-12-29T14:15:21.515Z,2.40
2022-12-29T14:18:06.615Z,1.90
2022-12-29T14:20:35.962Z,2.00
2022-12-29T14:23:19.527Z,1.48
2022-12-29T14:26:01.672Z,2.10
2022-12-29T14:28:31.853Z,1.80
2022-12-29T14:31:01.153Z,1.58
2022-12-29T14:33:31.784Z,1.42
2022-12-29T14:36:34.762Z,1.45
2022-12-29T14:39:02.844Z,1.60
2022-12-29T14:41:36.847Z,1.55
2022-12-29T14:44:20.343Z,1.30
2022-12-29T14:46:57.107Z,1.13
2022-12-29T14:49:30.375Z,1.27
2022-12-29T14:52:09.399Z,1.10
2022-12-29T14:54:50.937Z,1.13
2022-12-29T14:57:30.459Z,0.80
2022-12-29T15:00:03.488Z,1.00
2022-12-29T15:02:39.287Z,1.08
2022-12-29T15:05:21.931Z,1.15
2022-12-29T15:07:50.003Z,1.50
2022-12-29T15:10:21.275Z,1.20
2022-12-29T15:12:55.403Z,1.17
2022-12-29T15:15:25.957Z,1.05
2022-12-29T15:17:54.336Z,1.00
2022-12-29T15:20:26.768Z,1.33
2022-12-29T15:22:58.079Z,1.02
2022-12-29T15:25:27.201Z,1.30
2022-12-29T15:28:01.433Z,1.40
2022-12-29T15:30:29.336Z,1.27
2022-12-29T15:32:57.375Z,1.35
2022-12-29T15:35:33.190Z,1.00
2022-12-29T15:38:04.127Z,1.30
2022-12-29T15:40:33.878Z,1.48
2022-12-29T15:43:18.634Z,2.58
2022-12-29T15:45:46.653Z,4.35
2022-12-29T15:48:19.567Z,3.40
2022-12-29T15:50:48.443Z,3.83
2022-12-29T15:53:25.558Z,2.20
2022-12-29T15:55:59.777Z,1.90
2022-12-29T15:58:40.710Z,1.67
2022-12-29T16:01:19.859Z,1.95
2022-12-29T16:03:48.452Z,1.63
2022-12-29T16:06:30.522Z,2.00
2022-12-29T16:09:00.129Z,1.77
2022-12-29T16:11:35.608Z,1.52
2022-12-29T16:14:09.546Z,1.73
2022-12-29T16:16:40.801Z,1.30
2022-12-29T16:19:14.444Z,2.08
2022-12-29T16:21:44.036Z,1.38
2022-12-29T16:24:17.016Z,1.80
2022-12-29T16:26:50.865Z,1.35
2022-12-29T16:29:22.551Z,1.30
2022-12-29T16:31:53.969Z,1.20
2022-12-29T16:34:27.181Z,1.20
2022-12-29T16:36:57.605Z,1.40
2022-12-29T16:39:35.499Z,1.30
2022-12-29T16:42:23.679Z,1.40
2022-12-29T16:45:04.514Z,1.30
2022-12-29T16:47:32.496Z,1.20
2022-12-29T16:50:14.507Z,1.33
2022-12-29T16:52:43.436Z,1.40
2022-12-29T16:55:18.303Z,2.65
2022-12-29T16:57:49.737Z,2.22
2022-12-29T17:00:23.160Z,2.00
2022-12-29T17:02:53.005Z,2.10
2022-12-29T17:05:21.536Z,2.00
2022-12-29T17:07:49.448Z,2.08
2022-12-29T17:10:17.461Z,2.42
2022-12-29T17:12:47.595Z,11.13
2022-12-29T17:15:20.096Z,3.70
2022-12-29T17:17:51.198Z,3.20
2022-12-29T17:20:21.196Z,2.80
2022-12-29T17:22:49.990Z,2.72
2022-12-29T17:25:19.816Z,1.90
2022-12-29T17:27:51.694Z,1.80
2022-12-29T17:30:24.271Z,1.95
2022-12-29T17:33:00.639Z,2.20
2022-12-29T17:35:29.785Z,1.80
2022-12-29T17:37:57.733Z,1.67
2022-12-29T17:40:27.953Z,1.90
2022-12-29T17:42:57.974Z,1.40
2022-12-29T17:45:27.193Z,1.90
2022-12-29T17:47:56.970Z,2.72
2022-12-29T17:50:26.718Z,2.40
2022-12-29T17:53:00.969Z,2.67
2022-12-29T17:55:37.116Z,2.38
2022-12-29T17:58:18.071Z,2.13
2022-12-29T18:00:46.882Z,1.92
2022-12-29T18:03:18.478Z,2.20
2022-12-29T18:05:46.816Z,3.20
2022-12-29T18:08:14.660Z,3.15
2022-12-29T18:10:43.617Z,2.60
2022-12-29T18:13:20.672Z,2.22
2022-12-29T18:15:50.214Z,1.77
2022-12-29T18:18:21.217Z,2.85
2022-12-29T18:20:50.539Z,4.15
2022-12-29T18:23:21.865Z,2.78
2022-12-29T18:25:53.753Z,3.25
2022-12-29T18:28:23.647Z,2.42
2022-12-29T18:30:53.191Z,5.20
2022-12-29T18:33:26.245Z,4.43
2022-12-29T18:35:58.107Z,2.85
2022-12-29T18:38:26.522Z,2.10
2022-12-29T18:40:54.783Z,2.00
2022-12-29T18:43:23.199Z,1.90
2022-12-29T18:45:51.325Z,2.20
2022-12-29T18:48:20.676Z,1.48
2022-12-29T18:50:51.653Z,1.80
2022-12-29T18:53:21.272Z,1.70
2022-12-29T18:55:49.137Z,1.75
2022-12-29T18:58:16.984Z,1.92
2022-12-29T19:00:45.798Z,2.58
2022-12-29T19:03:14.578Z,2.70
2022-12-29T19:05:44.306Z,2.40
2022-12-29T19:08:13.850Z,2.95
2022-12-29T19:10:42.117Z,2.78
2022-12-29T19:13:15.954Z,2.25
2022-12-29T19:15:46.368Z,2.58
2022-12-29T19:21:07.357Z,2.90
2022-12-29T19:23:36.633Z,3.30
2022-12-29T19:26:04.513Z,3.45
2022-12-29T19:28:32.420Z,3.55
2022-12-29T19:31:02.935Z,3.70
2022-12-29T19:33:31.017Z,3.28
2022-12-29T19:36:01.219Z,3.33
2022-12-29T19:38:29.469Z,3.60
2022-12-29T19:40:58.635Z,3.20
2022-12-29T19:43:26.697Z,1.98
2022-12-29T19:45:55.183Z,1.70
2022-12-29T19:48:23.044Z,1.85
2022-12-29T19:50:50.919Z,1.92
2022-12-29T19:53:18.759Z,2.10
2022-12-29T19:55:48.100Z,2.17
2022-12-29T19:58:17.375Z,2.50
2022-12-29T20:00:45.420Z,2.33
2022-12-29T20:03:13.395Z,2.63
2022-12-29T20:05:41.843Z,2.22
2022-12-29T20:08:09.762Z,1.90
2022-12-29T20:10:37.577Z,2.08
2022-12-29T20:13:05.997Z,1.95
2022-12-29T20:15:35.287Z,2.05
2022-12-29T20:18:22.427Z,1.88
2022-12-29T20:20:50.954Z,2.40
2022-12-29T20:23:18.791Z,2.20
2022-12-29T20:25:55.550Z,1.90
2022-12-29T20:28:24.279Z,2.72
2022-12-29T20:30:58.590Z,3.90
2022-12-29T20:33:28.013Z,3.08
2022-12-29T20:36:06.523Z,3.28
2022-12-29T20:38:34.644Z,3.47
2022-12-29T20:41:03.029Z,3.70
2022-12-29T20:43:31.038Z,2.50
2022-12-29T20:46:00.473Z,2.50
2022-12-29T20:48:28.435Z,3.07
2022-12-29T20:50:59.384Z,3.28
2022-12-29T20:53:27.806Z,4.45
2022-12-29T20:55:56.107Z,3.40
2022-12-29T20:58:24.800Z,3.33
2022-12-29T21:00:53.181Z,2.37
2022-12-29T21:03:22.687Z,2.53
2022-12-29T21:05:50.565Z,1.92
2022-12-29T21:08:18.391Z,2.10
2022-12-29T21:10:48.117Z,1.77
2022-12-29T21:13:16.487Z,1.58
2022-12-29T21:15:44.786Z,1.75
2022-12-29T21:18:13.540Z,1.70
2022-12-29T21:20:42.774Z,2.00
2022-12-29T21:23:11.137Z,1.92
2022-12-29T21:25:44.689Z,1.95
2022-12-29T21:28:13.018Z,1.90
2022-12-29T21:30:41.250Z,1.83
2022-12-29T21:33:09.767Z,2.45
2022-12-29T21:35:38.364Z,2.20
2022-12-29T21:38:08.164Z,2.30
2022-12-29T21:40:37.363Z,2.10
2022-12-29T21:43:05.338Z,2.05
2022-12-29T21:45:32.680Z,2.78
2022-12-29T21:48:20.548Z,2.90
2022-12-29T21:51:08.090Z,3.60
2022-12-29T21:53:39.464Z,2.88
2022-12-29T21:56:09.426Z,2.47
2022-12-29T21:58:55.926Z,2.55
2022-12-29T22:01:42.451Z,2.55
2022-12-29T22:04:30.997Z,2.90
2022-12-29T22:07:16.283Z,2.58
2022-12-29T22:10:03.265Z,2.83
2022-12-29T22:12:48.567Z,3.30
2022-12-29T22:15:16.510Z,3.40
2022-12-29T22:17:48.832Z,4.15
2022-12-29T22:20:17.737Z,4.82
2022-12-29T22:22:46.074Z,4.65
2022-12-29T22:25:15.572Z,4.75
2022-12-29T22:27:43.954Z,4.45
2022-12-29T22:30:13.011Z,3.33
2022-12-29T22:32:41.116Z,3.10
2022-12-29T22:35:10.685Z,3.53
2022-12-29T22:37:40.471Z,3.13
2022-12-29T22:40:10.873Z,2.22
2022-12-29T22:42:40.388Z,2.00
2022-12-29T22:45:09.636Z,1.77
2022-12-29T22:47:37.469Z,1.88
2022-12-29T22:50:06.313Z,2.00
2022-12-29T22:52:34.174Z,1.97
2022-12-29T22:55:06.651Z,2.60
2022-12-29T22:57:35.199Z,2.37
